Wednesday, January 17, 2018, 7:15 PM EST
Back to Local

KBDR, Sikorsky Memorial Airport

Location: Stratford, CT, United States Lat: 41.167
Local Time: 7:15 PM EST ( 0:15 GMT) Lon: -73.133
Time Zone: US/Eastern Elev: 9 ft

Show me the last for .
Show Decoded

2018-01-17 18:52 METAR KBDR 172352Z 33011KT 10SM SCT017 M01/M04 A3014 RMK AO2 SLP206 60002
                 T10061039 10022 21006 55002 =
2018-01-17 17:52 METAR KBDR 172252Z 33007KT 10SM CLR 00/M03 A3014 RMK AO2 SLP205 T00001028 =
2018-01-17 16:52 METAR KBDR 172152Z 31007KT 10SM SCT048 01/M02 A3014 RMK AO2 SNE01 SLP205 P0000
                 T00111017 =
2018-01-17 16:09 METAR KBDR 172109Z 33005KT 10SM FEW010 OVC046 01/M01 A3015 RMK AO2 SNE01 P0000
                 T00111006 =
2018-01-17 15:52 METAR KBDR 172052Z 32008KT 1 3/4SM -SN BR FEW010 OVC038 01/M01 A3015 RMK AO2
                 RAE11SNB24 SLP209 P0000 60002 T00111006 55008 =
2018-01-17 15:28 METAR KBDR 172028Z 32005KT 1 3/4SM -SN BR BKN030 OVC038 01/M01 A3014 RMK AO2
                 RAE11SNB24 P0000 T00111006 =
2018-01-17 15:15 METAR KBDR 172015Z 34006KT 9SM FEW009 FEW016 OVC036 02/M01 A3014 RMK AO2 RAE11
                 P0000 T00171006 =
2018-01-17 15:02 METAR KBDR 172002Z 33008KT 10SM -RA BR SCT008 BKN016 OVC038 02/00 A3014 RMK AO2
                 P0000 T00170000 =
2018-01-17 14:52 METAR KBDR 171952Z 34008KT 8SM -RA BR BKN008 OVC013 02/00 A3014 RMK AO2
                 RAB14UPB26E50SNE14B50E52 SLP207 P0001 T00170000 =
2018-01-17 14:21 METAR KBDR 171921Z 33003KT 5SM -RA BR BKN006 BKN029 OVC037 02/01 A3015 =
2018-01-17 13:52 METAR KBDR 171852Z 32004KT 3SM -SN BR FEW006 BKN020 OVC030 02/01 A3016 RMK AO2
                 RAE19UPB01E07SNB19 SLP213 P0001 T00220011 =
2018-01-17 13:25 METAR KBDR 171825Z 30005KT 2 1/2SM -SN BR FEW006 OVC020 02/01 A3017 RMK AO2
                 RAE19UPB01E07SNB19 P0000 T00220006 =
2018-01-17 12:52 METAR KBDR 171752Z 33005KT 6SM -RA BR OVC017 02/01 A3017 RMK AO2
                 UPE38RAB38SNB1654E07B13E28 SLP217 P0001 60007 I6000 T00220006 10022 20017 55010
                 =
2018-01-17 12:49 METAR KBDR 171749Z 34006KT 6SM -RA BR BKN015 OVC020 02/01 A3017 RMK AO2
                 UPE38RAB38SNB1654E07B13E28 P0001 =
2018-01-17 11:52 METAR KBDR 171652Z 32005KT 4SM UP BR OVC011 02/01 A3020 RMK AO2
                 RAE1559UPB52SNB1559E52 SLP227 P0001 T00220011 =
2018-01-17 11:47 METAR KBDR 171647Z 33005KT 4SM -SN BR OVC011 02/01 A3020 RMK AO2 RAE1559SNB1559
                 P0001 =
2018-01-17 10:52 METAR KBDR 171552Z 33004KT 4SM -RA BR OVC006 02/01 A3024 RMK AO2
                 RAE23B48SNB23E48 SLP240 P0002 T00170006 =
2018-01-17 10:49 METAR KBDR 171549Z 33004KT 3SM -RA BR OVC006 02/01 A3024 RMK AO2
                 RAE23B48SNB23E48 P0002 =
2018-01-17 10:37 METAR KBDR 171537Z 35005KT 2 1/2SM -SN BR OVC006 02/01 A3024 =
2018-01-17 09:52 METAR KBDR 171452Z 03006KT 4SM -RA BR OVC007 02/01 A3025 RMK AO2 SLP242 P0001
                 60003 I3000 T00170011 56005 =
2018-01-17 08:52 METAR KBDR 171352Z 05005KT 4SM -RA BR OVC007 02/01 A3025 RMK AO2 SLP244 P0001
                 I1000 T00170006 =
2018-01-17 07:52 METAR KBDR 171252Z 05006KT 5SM -RA BR OVC008 02/01 A3025 RMK AO2 SLP242 P0001
                 T00170006 =
2018-01-17 06:52 METAR KBDR 171152Z 07009KT 9SM -RA BKN006 OVC011 02/01 A3026 RMK AO2 SLP247
                 P0002 60010 70010 I1000 I6000 T00220011 10028 20017 56007 =
2018-01-17 05:52 METAR KBDR 171052Z AUTO 06009KT 7SM -RA OVC005 02/01 A3027 RMK AO2 UPB13E14
                 SLP249 P0002 I1000 T00220011 =
2018-01-17 05:43 METAR KBDR 171043Z AUTO 06010KT 6SM -RA BR OVC005 02/01 A3027 RMK AO2 UPB13E14
                 P0002 I1000 T00220011 =
2018-01-17 04:52 METAR KBDR 170952Z AUTO 06009KT 6SM -RA BR OVC004 02/01 A3026 RMK AO2 SLP248
                 P0004 I1000 T00220011 =
2018-01-17 03:52 METAR KBDR 170852Z AUTO 05008KT 6SM -RA BR OVC004 03/02 A3028 RMK AO2 RAB00
                 SLP254 P0002 60002 T00280017 58016 =
2018-01-17 03:44 METAR KBDR 170844Z AUTO 05007KT 6SM -RA BR OVC004 03/02 A3029 RMK AO2 RAB00
                 P0001 T00280017 =
2018-01-17 02:52 METAR KBDR 170752Z AUTO 06009KT 10SM OVC005 02/01 A3030 RMK AO2 SLP261 T00220006
                 =
2018-01-17 01:52 METAR KBDR 170652Z AUTO 06009KT 10SM OVC008 02/00 A3031 RMK AO2 SLP264 T00220000
                 =
2018-01-17 01:22 METAR KBDR 170622Z AUTO 06007KT 10SM OVC009 02/00 A3032 RMK AO2 T00220000 =
2018-01-17 00:52 METAR KBDR 170552Z AUTO 06006KT 10SM OVC013 02/00 A3033 RMK AO2 SLP269 T00170000
                 10022 20006 58023 =
2018-01-17 00:34 METAR KBDR 170534Z AUTO 06006KT 10SM OVC014 02/00 A3033 RMK AO2 T00170000 =
2018-01-16 23:52 METAR KBDR 170452Z AUTO 08006KT 10SM SCT016 BKN028 OVC043 02/M01 A3035 RMK AO2
                 SLP276 T00171006 400221067 =
2018-01-16 22:52 METAR KBDR 170352Z AUTO 09005KT 10SM SCT019 SCT026 OVC033 02/00 A3038 RMK AO2
                 SLP286 T00170000 =
2018-01-16 22:24 METAR KBDR 170324Z AUTO 08004KT 10SM BKN021 BKN028 OVC036 02/00 A3039 RMK AO2
                 T00170000 =
2018-01-16 21:52 METAR KBDR 170252Z 06004KT 10SM SCT029 OVC035 02/M01 A3040 RMK AO2 SLP292
                 T00171006 56012 =
2018-01-16 20:52 METAR KBDR 170152Z 06006KT 10SM OVC033 01/M01 A3040 RMK AO2 SLP295 T00111011 =
2018-01-16 19:52 METAR KBDR 170052Z 03005KT 10SM OVC032 01/M02 A3041 RMK AO2 SLP299 T00111022 =

Support USWX by starting your Amazon purchase here.